createdAt,value
2023-02-16T00:04:26.333Z,9.82
2023-02-16T00:09:18.981Z,9.55
2023-02-16T00:14:11.921Z,9.02
2023-02-16T00:19:27.144Z,9.80
2023-02-16T00:24:19.250Z,9.35
2023-02-16T00:29:30.016Z,9.00
2023-02-16T00:34:34.428Z,9.20
2023-02-16T00:39:27.141Z,9.82
2023-02-16T00:44:32.377Z,9.27
2023-02-16T00:49:24.843Z,9.35
2023-02-16T00:54:16.730Z,9.25
2023-02-16T00:59:15.124Z,9.57
2023-02-16T01:04:17.936Z,8.90
2023-02-16T01:09:33.480Z,8.77
2023-02-16T01:14:26.689Z,8.63
2023-02-16T01:19:18.765Z,9.00
2023-02-16T01:24:12.026Z,8.70
2023-02-16T01:33:56.813Z,9.13
2023-02-16T01:38:48.658Z,8.68
2023-02-16T01:43:49.649Z,8.87
2023-02-16T01:48:41.637Z,8.45
2023-02-16T01:53:40.781Z,7.90
2023-02-16T01:58:54.385Z,7.43
2023-02-16T02:04:04.740Z,8.45
2023-02-16T02:09:02.672Z,8.38
2023-02-16T02:14:30.388Z,7.75
2023-02-16T02:19:22.281Z,7.28
2023-02-16T02:24:51.687Z,7.05
2023-02-16T02:29:53.904Z,8.05
2023-02-16T02:35:01.019Z,7.55
2023-02-16T02:40:22.809Z,7.57
2023-02-16T02:45:24.620Z,7.45
2023-02-16T02:50:36.867Z,7.25
2023-02-16T02:55:47.718Z,7.60
2023-02-16T03:00:44.394Z,7.40
2023-02-16T03:05:38.909Z,7.00
2023-02-16T03:10:51.179Z,7.70
2023-02-16T03:15:44.721Z,7.90
2023-02-16T03:20:55.663Z,7.18
2023-02-16T03:26:06.041Z,7.88
2023-02-16T03:30:58.528Z,7.28
2023-02-16T03:35:50.475Z,7.18
2023-02-16T03:40:43.489Z,7.78
2023-02-16T03:50:30.178Z,7.13
2023-02-16T03:55:22.007Z,6.88
2023-02-16T04:00:14.099Z,7.93
2023-02-16T04:05:06.179Z,7.05
2023-02-16T04:09:58.494Z,7.27
2023-02-16T04:14:50.422Z,7.63
2023-02-16T04:19:42.234Z,6.80
2023-02-16T04:24:34.155Z,8.20
2023-02-16T04:29:26.055Z,7.30
2023-02-16T04:34:17.838Z,7.55
2023-02-16T04:39:09.562Z,7.18
2023-02-16T04:44:01.288Z,7.28
2023-02-16T04:48:53.095Z,7.10
2023-02-16T04:53:44.941Z,7.00
2023-02-16T04:58:36.897Z,7.38
2023-02-16T05:03:28.887Z,7.45
2023-02-16T05:08:21.002Z,8.10
2023-02-16T05:13:31.521Z,7.70
2023-02-16T05:18:23.263Z,7.50
2023-02-16T05:23:15.057Z,7.90
2023-02-16T05:28:06.996Z,7.78
2023-02-16T05:32:58.806Z,8.07
2023-02-16T05:37:50.627Z,7.60
2023-02-16T05:42:42.390Z,8.90
2023-02-16T05:47:34.187Z,9.38
2023-02-16T05:52:26.118Z,9.00
2023-02-16T05:57:17.905Z,9.25
2023-02-16T06:02:10.034Z,9.80
2023-02-16T06:07:02.409Z,9.53
2023-02-16T06:11:54.194Z,8.87
2023-02-16T06:16:48.184Z,9.18
2023-02-16T06:21:40.587Z,8.82
2023-02-16T06:26:32.555Z,9.60
2023-02-16T06:31:25.294Z,9.88
2023-02-16T06:36:18.619Z,9.90
2023-02-16T06:41:10.510Z,9.23
2023-02-16T06:46:02.291Z,9.60
2023-02-16T06:50:54.168Z,8.95
2023-02-16T06:55:46.205Z,8.93
2023-02-16T07:00:38.189Z,9.30
2023-02-16T07:05:30.085Z,8.97
2023-02-16T07:10:21.977Z,8.65
2023-02-16T07:15:13.881Z,8.45
2023-02-16T07:20:06.969Z,8.43
2023-02-16T07:25:00.685Z,10.20
2023-02-16T07:29:52.490Z,10.00
2023-02-16T07:34:45.780Z,8.68
2023-02-16T07:39:37.726Z,9.18
2023-02-16T07:44:29.534Z,9.25
2023-02-16T07:49:21.467Z,8.07
2023-02-16T07:54:13.276Z,8.63
2023-02-16T07:59:05.071Z,8.55
2023-02-16T08:03:57.356Z,8.85
2023-02-16T08:08:49.759Z,8.33
2023-02-16T08:13:41.813Z,8.75
2023-02-16T08:18:33.620Z,8.87
2023-02-16T08:23:25.470Z,8.57
2023-02-16T08:28:17.256Z,7.90
2023-02-16T08:33:10.302Z,8.20
2023-02-16T08:38:02.539Z,7.88
2023-02-16T08:42:54.380Z,8.05
2023-02-16T08:47:46.163Z,7.95
2023-02-16T08:52:38.731Z,8.88
2023-02-16T08:57:34.594Z,7.95
2023-02-16T09:02:27.697Z,7.80
2023-02-16T09:07:20.927Z,8.35
2023-02-16T09:12:12.701Z,7.18
2023-02-16T09:17:04.900Z,8.07
2023-02-16T09:21:56.892Z,8.00
2023-02-16T09:26:49.787Z,8.07
2023-02-16T09:36:34.136Z,8.35
2023-02-16T09:41:41.092Z,8.00
2023-02-16T09:46:34.201Z,7.75
2023-02-16T09:51:34.890Z,7.47
2023-02-16T09:56:32.882Z,8.43
2023-02-16T10:01:40.215Z,8.55
2023-02-16T10:06:41.244Z,8.25
2023-02-16T10:11:46.655Z,7.88
2023-02-16T10:16:51.309Z,8.05
2023-02-16T10:21:44.346Z,8.07
2023-02-16T10:26:51.887Z,8.65
2023-02-16T10:31:49.170Z,8.55
2023-02-16T10:37:02.720Z,8.15
2023-02-16T10:42:18.402Z,8.63
2023-02-16T10:47:23.959Z,8.50
2023-02-16T10:52:15.957Z,7.97
2023-02-16T10:57:13.144Z,7.97
2023-02-16T11:02:17.512Z,8.20
2023-02-16T11:07:12.802Z,8.68
2023-02-16T11:12:32.900Z,8.32
2023-02-16T11:17:25.500Z,8.25
2023-02-16T11:22:35.640Z,8.15
2023-02-16T11:27:27.450Z,8.35
2023-02-16T11:32:21.565Z,8.82
2023-02-16T11:37:28.482Z,9.65
2023-02-16T11:42:30.604Z,9.52
2023-02-16T11:47:22.498Z,8.40
2023-02-16T11:52:23.544Z,9.65
2023-02-16T11:57:23.016Z,9.40
2023-02-16T12:02:36.435Z,9.85
2023-02-16T12:08:04.235Z,9.60
2023-02-16T12:13:03.092Z,8.80
2023-02-16T12:18:12.936Z,9.75
2023-02-16T12:23:33.481Z,9.65
2023-02-16T12:28:37.956Z,9.30
2023-02-16T12:33:49.495Z,9.88
2023-02-16T12:39:02.563Z,8.93
2023-02-16T12:43:58.871Z,9.35
2023-02-16T12:48:58.926Z,10.38
2023-02-16T12:54:29.609Z,10.07
2023-02-16T12:59:39.675Z,10.90
2023-02-16T13:04:37.069Z,10.10
2023-02-16T13:09:40.683Z,10.23
2023-02-16T13:14:34.640Z,11.07
2023-02-16T13:19:27.082Z,10.98
2023-02-16T13:24:35.483Z,10.75
2023-02-16T13:29:45.350Z,11.25
2023-02-16T13:34:43.612Z,10.50
2023-02-16T13:39:47.116Z,11.50
2023-02-16T13:44:48.755Z,10.63
2023-02-16T13:49:44.580Z,12.18
2023-02-16T13:54:40.595Z,11.32
2023-02-16T13:59:35.981Z,10.75
2023-02-16T14:04:30.837Z,10.60
2023-02-16T14:09:37.949Z,11.45
2023-02-16T14:14:56.584Z,11.05
2023-02-16T14:20:19.474Z,10.50
2023-02-16T14:25:23.349Z,10.85
2023-02-16T14:30:38.993Z,10.43
2023-02-16T14:35:38.855Z,10.80
2023-02-16T14:40:41.285Z,9.90
2023-02-16T14:46:10.536Z,10.80
2023-02-16T14:51:29.949Z,10.50
2023-02-16T14:56:43.485Z,10.75
2023-02-16T15:01:42.763Z,10.10
2023-02-16T15:06:42.163Z,10.75
2023-02-16T15:12:10.020Z,10.38
2023-02-16T15:17:06.753Z,10.43
2023-02-16T15:22:19.112Z,10.85
2023-02-16T15:27:21.800Z,10.63
2023-02-16T15:32:16.590Z,10.98
2023-02-16T15:37:29.678Z,10.05
2023-02-16T15:47:18.458Z,9.98
2023-02-16T15:52:33.134Z,9.70
2023-02-16T15:57:30.876Z,10.90
2023-02-16T16:02:37.499Z,11.18
2023-02-16T16:07:47.368Z,11.05
2023-02-16T16:12:39.289Z,11.95
2023-02-16T16:17:33.327Z,10.55
2023-02-16T16:22:35.263Z,10.45
2023-02-16T16:40:11.288Z,66.95
2023-02-16T16:45:20.615Z,84.95
2023-02-16T16:50:15.231Z,78.60
2023-02-16T16:55:19.378Z,79.55
2023-02-16T17:00:12.143Z,74.95
2023-02-16T17:05:04.508Z,76.68
2023-02-16T17:09:56.341Z,71.87
2023-02-16T17:14:48.140Z,70.18
2023-02-16T17:19:41.455Z,68.38
2023-02-16T17:24:34.234Z,67.90
2023-02-16T17:29:26.075Z,67.22
2023-02-16T17:34:17.888Z,66.43
2023-02-16T17:39:09.756Z,63.50
2023-02-16T17:44:01.615Z,65.85
2023-02-16T17:48:55.325Z,61.42
2023-02-16T17:53:47.266Z,61.30
2023-02-16T17:58:39.530Z,63.42
2023-02-16T18:03:31.381Z,58.50
2023-02-16T18:08:23.436Z,56.30
2023-02-16T18:13:16.052Z,53.63
2023-02-16T18:18:08.506Z,56.22
2023-02-16T18:23:00.516Z,56.38
2023-02-16T18:27:52.439Z,54.10
2023-02-16T18:32:45.765Z,53.67
2023-02-16T18:37:38.298Z,52.53
2023-02-16T18:42:30.156Z,52.38
2023-02-16T18:47:22.023Z,50.33
2023-02-16T18:52:13.889Z,49.08
2023-02-16T18:57:05.925Z,50.50
2023-02-16T19:01:59.453Z,49.17
2023-02-16T19:06:51.869Z,47.78
2023-02-16T19:11:43.778Z,46.83
2023-02-16T19:16:35.883Z,46.58
2023-02-16T19:21:27.810Z,46.13
2023-02-16T19:26:19.735Z,45.58
2023-02-16T19:31:29.190Z,45.75
2023-02-16T19:36:22.698Z,41.30
2023-02-16T19:41:19.340Z,42.08
2023-02-16T19:46:12.154Z,40.92
2023-02-16T19:51:06.057Z,42.78
2023-02-16T19:55:58.002Z,40.55
2023-02-16T20:00:49.995Z,40.33
2023-02-16T20:05:41.963Z,41.08
2023-02-16T20:10:39.512Z,40.60
2023-02-16T20:15:31.548Z,38.58
2023-02-16T20:20:23.845Z,39.20
2023-02-16T20:25:16.191Z,37.40
2023-02-16T20:30:11.316Z,36.23
2023-02-16T20:35:07.222Z,36.83
2023-02-16T20:39:59.164Z,34.53
2023-02-16T20:44:51.061Z,33.75
2023-02-16T20:49:43.023Z,35.05
2023-02-16T20:54:35.151Z,33.97
2023-02-16T20:59:27.091Z,32.93
2023-02-16T21:04:19.177Z,33.25
2023-02-16T21:09:11.891Z,31.52
2023-02-16T21:14:08.062Z,32.00
2023-02-16T21:18:59.968Z,31.92
2023-02-16T21:23:53.757Z,32.72
2023-02-16T21:28:45.803Z,29.50
2023-02-16T21:33:38.330Z,31.20
2023-02-16T21:38:30.213Z,29.77
2023-02-16T21:43:22.008Z,30.13
2023-02-16T21:48:32.742Z,29.15
2023-02-16T21:53:24.593Z,29.60
2023-02-16T21:58:16.938Z,27.23
2023-02-16T22:03:09.275Z,29.95
2023-02-16T22:08:01.529Z,29.43
2023-02-16T22:12:54.045Z,28.13
2023-02-16T22:17:45.905Z,27.95
2023-02-16T22:22:37.833Z,27.30
2023-02-16T22:27:29.660Z,27.70
2023-02-16T22:32:21.503Z,27.38
2023-02-16T22:37:13.381Z,25.90
2023-02-16T22:42:05.206Z,26.52
2023-02-16T22:46:57.107Z,25.92
2023-02-16T22:51:49.076Z,25.05
2023-02-16T22:56:41.199Z,25.42
2023-02-16T23:01:33.138Z,25.60
2023-02-16T23:06:34.042Z,25.02
2023-02-16T23:11:26.714Z,24.65
2023-02-16T23:16:21.862Z,24.90
2023-02-16T23:21:19.492Z,25.05
2023-02-16T23:26:11.668Z,24.65
2023-02-16T23:31:03.785Z,24.40
2023-02-16T23:35:55.992Z,24.20
2023-02-16T23:41:04.949Z,24.67
2023-02-16T23:45:57.178Z,22.20
2023-02-16T23:50:50.792Z,23.40
2023-02-16T23:55:42.637Z,23.30
